createdAt,value
2024-01-28T00:02:01.517Z,8
2024-01-28T00:33:03.940Z,8
2024-01-28T01:04:11.559Z,10
2024-01-28T01:36:27.355Z,8
2024-01-28T02:07:29.976Z,8
2024-01-28T02:38:37.913Z,8
2024-01-28T03:09:43.681Z,7
2024-01-28T03:40:48.584Z,8
2024-01-28T04:11:56.041Z,8
2024-01-28T04:43:05.072Z,7
2024-01-28T05:14:09.060Z,8
2024-01-28T05:45:11.117Z,7
2024-01-28T06:16:16.033Z,7
2024-01-28T06:47:22.201Z,7
2024-01-28T07:18:26.476Z,6
2024-01-28T07:49:35.143Z,7
2024-01-28T08:20:44.421Z,7
2024-01-28T08:51:48.947Z,8
2024-01-28T09:22:57.962Z,8
2024-01-28T09:54:07.198Z,10
2024-01-28T10:25:09.588Z,8
2024-01-28T10:56:15.388Z,8
2024-01-28T11:27:19.641Z,10
2024-01-28T11:58:22.572Z,8
2024-01-28T12:29:27.278Z,9
2024-01-28T13:00:34.405Z,9
2024-01-28T13:31:41.529Z,7
2024-01-28T14:02:46.250Z,7
2024-01-28T14:33:57.218Z,7
2024-01-28T15:05:10.984Z,8
2024-01-28T15:36:08.886Z,7
2024-01-28T16:07:14.904Z,7
2024-01-28T16:38:19.093Z,7
2024-01-28T17:09:26.201Z,8
2024-01-28T17:40:27.512Z,9
2024-01-28T18:11:30.531Z,13
2024-01-28T19:13:39.101Z,13
2024-01-28T19:44:42.477Z,14
2024-01-28T20:15:45.213Z,14
2024-01-28T20:46:47.670Z,14
2024-01-28T21:17:50.649Z,16
2024-01-28T21:48:53.568Z,14
2024-01-28T22:19:57.261Z,14
2024-01-28T22:51:03.842Z,14
2024-01-28T23:22:05.389Z,14
2024-01-28T23:53:12.759Z,14
